createdAt,value
2018-08-22T00:01:02.429Z,97763.08
2018-08-22T00:03:31.266Z,97769.83
2018-08-22T00:06:00.071Z,97771.33
2018-08-22T00:08:34.981Z,97767.75
2018-08-22T00:11:04.176Z,97766.80
2018-08-22T00:13:33.060Z,97763.23
2018-08-22T00:16:01.853Z,97768.20
2018-08-22T00:18:30.716Z,97765.67
2018-08-22T00:20:59.546Z,97763.62
2018-08-22T00:23:28.472Z,97765.25
2018-08-22T00:25:57.422Z,97763.10
2018-08-22T00:28:26.437Z,97762.19
2018-08-22T00:33:51.756Z,97755.55
2018-08-22T00:36:31.817Z,97750.34
2018-08-22T00:39:14.567Z,97745.87
2018-08-22T00:41:50.350Z,97744.90
2018-08-22T00:44:29.486Z,97749.75
2018-08-22T00:47:01.705Z,97749.24
2018-08-22T00:55:04.342Z,97745.38
2018-08-22T00:57:36.448Z,97744.80
2018-08-22T01:00:12.273Z,97749.64
2018-08-22T01:02:50.008Z,97743.63
2018-08-22T01:05:27.731Z,97752.59
2018-08-22T01:08:03.070Z,97752.64
2018-08-22T01:10:39.185Z,97752.23
2018-08-22T01:13:17.971Z,97753.59
2018-08-22T01:15:54.634Z,97756.77
2018-08-22T01:18:27.689Z,97748.09
2018-08-22T01:21:02.690Z,97754.16
2018-08-22T01:23:38.411Z,97747.75
2018-08-22T01:26:14.575Z,97756.23
2018-08-22T01:28:48.478Z,97746.30
2018-08-22T01:31:20.489Z,97749.61
2018-08-22T01:34:04.790Z,97752.17
2018-08-22T01:36:38.596Z,97752.27
2018-08-22T01:39:19.491Z,97755.66
2018-08-22T01:41:55.106Z,97743.78
2018-08-22T01:44:28.491Z,97750.45
2018-08-22T01:47:05.875Z,97749.50
2018-08-22T01:49:43.740Z,97746.94
2018-08-22T01:52:22.425Z,97755.27
2018-08-22T01:55:00.345Z,97750.19
2018-08-22T01:57:40.097Z,97751.72
2018-08-22T02:00:18.949Z,97754.23
2018-08-22T02:02:55.855Z,97753.73
2018-08-22T02:08:13.966Z,97751.05
2018-08-22T02:13:41.926Z,97755.30
2018-08-22T02:16:20.263Z,97756.50
2018-08-22T02:19:03.109Z,97752.11
2018-08-22T02:21:38.125Z,97754.44
2018-08-22T02:24:17.272Z,97747.98
2018-08-22T02:26:53.187Z,97751.20
2018-08-22T02:29:27.872Z,97755.62
2018-08-22T02:32:06.969Z,97751.66
2018-08-22T02:34:48.863Z,97753.34
2018-08-22T02:37:29.920Z,97761.36
2018-08-22T02:40:09.371Z,97761.41
2018-08-22T02:42:46.172Z,97763.77
2018-08-22T02:45:22.053Z,97763.76
2018-08-22T02:47:59.393Z,97766.00
2018-08-22T02:50:35.215Z,97768.44
2018-08-22T02:53:10.742Z,97761.23
2018-08-22T02:55:51.190Z,97767.83
2018-08-22T02:58:25.831Z,97773.00
2018-08-22T03:01:07.392Z,97765.90
2018-08-22T03:03:48.238Z,97778.98
2018-08-22T03:06:26.768Z,97771.11
2018-08-22T03:09:01.188Z,97767.99
2018-08-22T03:11:41.566Z,97767.52
2018-08-22T03:14:15.996Z,97768.81
2018-08-22T03:16:50.662Z,97770.05
2018-08-22T03:19:28.074Z,97771.03
2018-08-22T03:22:00.848Z,97784.44
2018-08-22T03:24:33.264Z,97776.66
2018-08-22T03:27:04.785Z,97783.95
2018-08-22T03:29:36.602Z,97786.48
2018-08-22T03:34:44.828Z,97776.70
2018-08-22T03:37:18.341Z,97783.81
2018-08-22T03:39:49.602Z,97776.83
2018-08-22T03:42:25.389Z,97773.18
2018-08-22T03:44:59.783Z,97777.98
2018-08-22T03:47:31.632Z,97775.09
2018-08-22T03:50:04.658Z,97782.05
2018-08-22T03:52:35.824Z,97784.76
2018-08-22T03:55:07.485Z,97783.86
2018-08-22T03:57:37.527Z,97788.17
2018-08-22T04:00:11.205Z,97780.61
2018-08-22T04:02:42.112Z,97777.89
2018-08-22T04:05:14.507Z,97788.33
2018-08-22T04:07:47.788Z,97788.80
2018-08-22T04:10:19.052Z,97792.72
2018-08-22T04:12:52.071Z,97796.28
2018-08-22T04:15:27.292Z,97794.78
2018-08-22T04:17:58.503Z,97792.25
2018-08-22T04:20:32.048Z,97795.54
2018-08-22T04:23:04.651Z,97799.32
2018-08-22T04:25:35.840Z,97801.97
2018-08-22T04:28:09.917Z,97805.05
2018-08-22T04:30:41.571Z,97800.03
2018-08-22T04:33:13.077Z,97804.34
2018-08-22T04:38:26.763Z,97816.27
2018-08-22T04:40:57.464Z,97815.50
2018-08-22T04:43:31.506Z,97818.31
2018-08-22T04:46:03.245Z,97820.19
2018-08-22T04:48:34.677Z,97815.95
2018-08-22T04:51:05.920Z,97823.16
2018-08-22T04:53:38.271Z,97822.91
2018-08-22T04:56:11.234Z,97828.11
2018-08-22T04:58:43.480Z,97827.30
2018-08-22T05:01:14.447Z,97831.77
2018-08-22T05:03:45.319Z,97829.22
2018-08-22T05:06:16.896Z,97831.63
2018-08-22T05:08:49.997Z,97830.45
2018-08-22T05:11:22.583Z,97830.29
2018-08-22T05:13:55.364Z,97834.17
2018-08-22T05:16:27.887Z,97831.86
2018-08-22T05:19:00.205Z,97839.32
2018-08-22T05:21:31.531Z,97841.92
2018-08-22T05:24:02.832Z,97840.84
2018-08-22T05:26:36.009Z,97845.41
2018-08-22T05:29:10.021Z,97848.39
2018-08-22T05:31:42.375Z,97851.52
2018-08-22T05:34:14.713Z,97849.49
2018-08-22T05:36:44.587Z,97849.95
2018-08-22T05:41:55.345Z,97849.52
2018-08-22T05:44:27.049Z,97848.82
2018-08-22T05:47:00.752Z,97849.28
2018-08-22T05:49:32.402Z,97850.72
2018-08-22T05:52:04.437Z,97855.31
2018-08-22T05:54:37.838Z,97857.83
2018-08-22T05:57:08.854Z,97860.54
2018-08-22T05:59:41.088Z,97861.34
2018-08-22T06:02:16.649Z,97861.34
2018-08-22T06:04:47.878Z,97863.42
2018-08-22T06:07:18.442Z,97865.90
2018-08-22T06:09:51.474Z,97862.44
2018-08-22T06:12:22.257Z,97862.16
2018-08-22T06:14:54.385Z,97865.70
2018-08-22T06:17:25.164Z,97872.66
2018-08-22T06:19:58.386Z,97864.88
2018-08-22T06:22:29.757Z,97866.23
2018-08-22T06:25:02.663Z,97868.63
2018-08-22T06:27:33.640Z,97866.99
2018-08-22T06:30:05.353Z,97853.28
2018-08-22T06:32:37.527Z,97852.74
2018-08-22T06:35:10.176Z,97859.73
2018-08-22T06:37:43.231Z,97855.69
2018-08-22T06:40:14.773Z,97852.56
2018-08-22T06:42:46.857Z,97857.67
2018-08-22T06:45:17.913Z,97853.46
2018-08-22T06:47:50.996Z,97857.76
2018-08-22T06:50:22.665Z,97852.50
2018-08-22T06:52:54.069Z,97852.79
2018-08-22T06:55:28.057Z,97853.05
2018-08-22T07:00:36.704Z,97845.67
2018-08-22T07:03:08.281Z,97848.09
2018-08-22T07:08:16.726Z,97843.22
2018-08-22T07:10:49.252Z,97842.39
2018-08-22T07:13:20.793Z,97846.43
2018-08-22T07:15:50.937Z,97844.13
2018-08-22T07:18:22.234Z,97848.45
2018-08-22T07:20:52.491Z,97845.30
2018-08-22T07:23:23.739Z,97842.49
2018-08-22T07:25:54.952Z,97841.33
2018-08-22T07:28:27.670Z,97844.41
2018-08-22T07:30:58.336Z,97841.94
2018-08-22T07:33:30.014Z,97834.75
2018-08-22T07:36:02.300Z,97838.23
2018-08-22T07:38:35.829Z,97838.50
2018-08-22T07:41:07.735Z,97832.19
2018-08-22T07:43:41.368Z,97836.15
2018-08-22T07:46:13.708Z,97840.70
2018-08-22T07:48:45.886Z,97837.27
2018-08-22T07:51:17.336Z,97833.02
2018-08-22T07:53:49.138Z,97829.94
2018-08-22T07:56:21.407Z,97837.09
2018-08-22T07:59:00.765Z,97830.64
2018-08-22T08:01:30.178Z,97835.06
2018-08-22T08:04:04.010Z,97831.01
2018-08-22T08:06:35.855Z,97832.91
2018-08-22T08:09:08.144Z,97836.27
2018-08-22T08:11:37.482Z,97833.25
2018-08-22T08:14:06.435Z,97831.28
2018-08-22T08:16:36.374Z,97837.03
2018-08-22T08:19:05.889Z,97832.80
2018-08-22T08:21:34.909Z,97835.91
2018-08-22T08:24:05.729Z,97832.67
2018-08-22T08:26:34.710Z,97833.09
2018-08-22T08:29:03.733Z,97837.23
2018-08-22T08:34:07.533Z,97825.08
2018-08-22T08:36:36.358Z,97822.97
2018-08-22T08:39:08.762Z,97821.42
2018-08-22T08:41:38.021Z,97823.09
2018-08-22T08:44:07.228Z,97818.09
2018-08-22T08:49:14.706Z,97817.30
2018-08-22T08:51:54.833Z,97812.89
2018-08-22T08:54:23.765Z,97814.80
2018-08-22T08:56:59.476Z,97816.09
2018-08-22T08:59:28.930Z,97818.64
2018-08-22T09:01:58.389Z,97814.96
2018-08-22T09:04:28.531Z,97815.35
2018-08-22T09:07:00.500Z,97806.65
2018-08-22T09:09:29.685Z,97801.22
2018-08-22T09:14:35.530Z,97800.56
2018-08-22T09:17:05.816Z,97797.11
2018-08-22T09:19:35.190Z,97799.04
2018-08-22T09:22:04.702Z,97797.98
2018-08-22T09:24:33.652Z,97793.17
2018-08-22T09:27:06.937Z,97794.70
2018-08-22T09:29:36.147Z,97800.92
2018-08-22T09:34:44.133Z,97791.89
2018-08-22T09:37:13.127Z,97789.82
2018-08-22T09:39:42.051Z,97784.75
2018-08-22T09:42:11.154Z,97793.64
2018-08-22T09:44:40.236Z,97789.31
2018-08-22T09:47:10.244Z,97783.27
2018-08-22T09:49:39.274Z,97783.25
2018-08-22T09:52:08.761Z,97784.20
2018-08-22T09:55:04.417Z,97781.08
2018-08-22T09:57:33.495Z,97779.32
2018-08-22T10:00:02.460Z,97776.23
2018-08-22T10:02:31.449Z,97779.44
2018-08-22T10:05:00.586Z,97770.41
2018-08-22T10:07:29.782Z,97766.78
2018-08-22T10:09:58.834Z,97767.02
2018-08-22T10:12:28.408Z,97767.39
2018-08-22T10:14:57.352Z,97758.52
2018-08-22T10:17:26.377Z,97754.91
2018-08-22T10:19:55.360Z,97753.70
2018-08-22T10:22:24.302Z,97753.84
2018-08-22T10:24:53.445Z,97756.00
2018-08-22T10:27:22.508Z,97750.98
2018-08-22T10:29:51.864Z,97750.13
2018-08-22T10:32:21.385Z,97745.97
2018-08-22T10:34:50.435Z,97744.78
2018-08-22T10:37:19.452Z,97745.02
2018-08-22T10:42:22.733Z,97744.19
2018-08-22T10:44:51.817Z,97726.81
2018-08-22T10:47:21.804Z,97728.58
2018-08-22T10:49:50.981Z,97725.63
2018-08-22T10:52:20.219Z,97726.33
2018-08-22T10:54:49.160Z,97725.70
2018-08-22T10:57:18.105Z,97718.51
2018-08-22T10:59:47.361Z,97711.42
2018-08-22T11:02:16.459Z,97710.89
2018-08-22T11:04:45.507Z,97711.76
2018-08-22T11:07:14.408Z,97714.59
2018-08-22T11:09:44.363Z,97711.16
2018-08-22T11:12:13.701Z,97711.66
2018-08-22T11:14:42.556Z,97708.55
2018-08-22T11:17:11.636Z,97700.53
2018-08-22T11:19:40.705Z,97701.30
2018-08-22T11:22:20.797Z,97695.24
2018-08-22T11:25:00.754Z,97703.23
2018-08-22T11:27:40.660Z,97700.48
2018-08-22T11:30:21.267Z,97691.30
2018-08-22T11:33:02.247Z,97681.63
2018-08-22T11:35:29.988Z,97692.25
2018-08-22T11:37:58.890Z,97684.91
2018-08-22T11:40:27.863Z,97685.19
2018-08-22T11:42:56.773Z,97680.78
2018-08-22T11:45:25.601Z,97690.69
2018-08-22T11:47:55.033Z,97681.92
2018-08-22T11:50:24.021Z,97675.99
2018-08-22T11:52:52.906Z,97681.56
2018-08-22T11:55:21.856Z,97677.13
2018-08-22T11:57:50.812Z,97670.86
2018-08-22T12:00:19.772Z,97667.95
2018-08-22T12:02:48.665Z,97669.16
2018-08-22T12:05:17.453Z,97665.70
2018-08-22T12:07:46.240Z,97663.95
2018-08-22T12:10:15.044Z,97662.94
2018-08-22T12:12:43.911Z,97662.88
2018-08-22T12:15:12.768Z,97660.27
2018-08-22T12:17:41.589Z,97665.14
2018-08-22T12:20:10.437Z,97654.09
2018-08-22T12:22:39.359Z,97655.91
2018-08-22T12:25:09.455Z,97653.56
2018-08-22T12:27:38.432Z,97648.76
2018-08-22T12:30:07.269Z,97643.27
2018-08-22T12:32:36.201Z,97642.23
2018-08-22T12:35:05.233Z,97645.43
2018-08-22T12:37:34.029Z,97636.45
2018-08-22T12:40:02.801Z,97633.79
2018-08-22T12:42:31.685Z,97632.83
2018-08-22T12:45:00.484Z,97632.20
2018-08-22T12:47:29.354Z,97625.77
2018-08-22T12:49:58.400Z,97625.43
2018-08-22T12:52:27.207Z,97614.65
2018-08-22T12:54:56.040Z,97621.36
2018-08-22T12:57:24.917Z,97620.83
2018-08-22T12:59:53.756Z,97620.65
2018-08-22T13:02:22.814Z,97614.17
2018-08-22T13:04:51.722Z,97616.57
2018-08-22T13:07:20.517Z,97615.94
2018-08-22T13:09:49.550Z,97612.36
2018-08-22T13:12:18.390Z,97604.46
2018-08-22T13:14:47.264Z,97606.55
2018-08-22T13:17:16.093Z,97597.88
2018-08-22T13:19:44.958Z,97599.25
2018-08-22T13:22:13.756Z,97591.63
2018-08-22T13:24:42.690Z,97587.55
2018-08-22T13:27:11.466Z,97587.48
2018-08-22T13:29:40.362Z,97595.79
2018-08-22T13:32:10.050Z,97591.30
2018-08-22T13:34:39.991Z,97581.70
2018-08-22T13:37:08.819Z,97589.49
2018-08-22T13:39:39.238Z,97586.13
2018-08-22T13:42:08.100Z,97587.38
2018-08-22T13:44:37.080Z,97576.92
2018-08-22T13:47:06.173Z,97570.56
2018-08-22T13:49:34.995Z,97572.69
2018-08-22T13:52:03.848Z,97563.44
2018-08-22T13:54:32.684Z,97558.58
2018-08-22T13:57:05.156Z,97563.20
2018-08-22T13:59:34.069Z,97559.33
2018-08-22T14:02:03.800Z,97563.12
2018-08-22T14:04:32.831Z,97560.59
2018-08-22T14:07:02.006Z,97556.00
2018-08-22T14:09:30.917Z,97557.95
2018-08-22T14:12:00.049Z,97549.72
2018-08-22T14:14:28.965Z,97547.80
2018-08-22T14:16:58.260Z,97546.58
2018-08-22T14:19:27.410Z,97541.61
2018-08-22T14:21:56.248Z,97546.14
2018-08-22T14:24:25.038Z,97538.77
2018-08-22T14:29:29.006Z,97539.98
2018-08-22T14:31:58.637Z,97542.14
2018-08-22T14:34:28.370Z,97541.72
2018-08-22T14:36:57.205Z,97544.88
2018-08-22T14:39:26.405Z,97532.77
2018-08-22T14:41:55.313Z,97536.50
2018-08-22T14:44:24.858Z,97534.05
2018-08-22T14:46:53.754Z,97531.37
2018-08-22T14:49:22.597Z,97530.42
2018-08-22T14:51:51.513Z,97519.36
2018-08-22T14:54:23.796Z,97521.16
2018-08-22T14:56:53.283Z,97520.77
2018-08-22T14:59:22.410Z,97523.26
2018-08-22T15:01:51.346Z,97515.87
2018-08-22T15:04:20.196Z,97519.27
2018-08-22T15:06:49.125Z,97522.63
2018-08-22T15:09:19.590Z,97523.33
2018-08-22T15:11:48.574Z,97516.47
2018-08-22T15:14:17.410Z,97509.72
2018-08-22T15:16:47.807Z,97516.24
2018-08-22T15:21:52.093Z,97504.32
2018-08-22T15:24:23.360Z,97505.13
2018-08-22T15:26:52.917Z,97509.94
2018-08-22T15:29:23.360Z,97506.80
2018-08-22T15:31:52.954Z,97507.95
2018-08-22T15:34:22.125Z,97509.03
2018-08-22T15:36:51.044Z,97504.74
2018-08-22T15:39:19.904Z,97497.33
2018-08-22T15:41:48.880Z,97501.58
2018-08-22T15:44:17.800Z,97498.45
2018-08-22T15:46:46.757Z,97493.61
2018-08-22T15:49:16.244Z,97492.34
2018-08-22T15:51:46.748Z,97493.39
2018-08-22T15:54:16.889Z,97493.86
2018-08-22T15:56:45.689Z,97490.06
2018-08-22T15:59:15.266Z,97487.47
2018-08-22T16:01:44.284Z,97490.17
2018-08-22T16:04:13.398Z,97486.03
2018-08-22T16:06:53.508Z,97481.98
2018-08-22T16:09:27.300Z,97479.75
2018-08-22T16:11:56.172Z,97474.09
2018-08-22T16:14:25.154Z,97473.25
2018-08-22T16:16:54.134Z,97473.79
2018-08-22T16:19:22.951Z,97470.64
2018-08-22T16:21:52.049Z,97469.25
2018-08-22T16:24:25.485Z,97474.73
2018-08-22T16:26:54.432Z,97467.55
2018-08-22T16:29:25.591Z,97465.35
2018-08-22T16:31:56.377Z,97467.39
2018-08-22T16:34:25.218Z,97467.20
2018-08-22T16:36:57.326Z,97465.97
2018-08-22T16:39:38.447Z,97467.23
2018-08-22T16:42:07.858Z,97468.27
2018-08-22T16:44:36.934Z,97467.48
2018-08-22T16:47:09.901Z,97471.30
2018-08-22T16:49:39.215Z,97474.05
2018-08-22T16:52:08.668Z,97480.02
2018-08-22T16:54:37.462Z,97481.09
2018-08-22T16:57:06.379Z,97482.14
2018-08-22T16:59:35.208Z,97477.53
2018-08-22T17:02:04.454Z,97472.93
2018-08-22T17:04:33.406Z,97477.34
2018-08-22T17:07:07.381Z,97479.30
2018-08-22T17:09:36.256Z,97481.41
2018-08-22T17:12:05.209Z,97479.38
2018-08-22T17:14:35.133Z,97480.25
2018-08-22T17:17:04.156Z,97483.31
2018-08-22T17:19:33.004Z,97488.11
2018-08-22T17:22:02.011Z,97492.22
2018-08-22T17:24:32.219Z,97485.40
2018-08-22T17:27:01.229Z,97489.01
2018-08-22T17:29:30.238Z,97493.09
2018-08-22T17:32:05.031Z,97498.45
2018-08-22T17:34:34.583Z,97502.42
2018-08-22T17:37:08.888Z,97507.59
2018-08-22T17:39:38.592Z,97509.08
2018-08-22T17:42:07.475Z,97515.87
2018-08-22T17:44:36.269Z,97511.02
2018-08-22T17:47:05.216Z,97520.32
2018-08-22T17:49:34.145Z,97519.70
2018-08-22T17:52:08.783Z,97523.19
2018-08-22T17:54:38.325Z,97522.78
2018-08-22T17:57:19.119Z,97520.23
2018-08-22T17:59:47.947Z,97521.02
2018-08-22T18:02:16.917Z,97532.26
2018-08-22T18:04:51.889Z,97532.25
2018-08-22T18:07:21.674Z,97534.14
2018-08-22T18:09:51.522Z,97540.37
2018-08-22T18:12:23.428Z,97535.92
2018-08-22T18:14:53.058Z,97541.16
2018-08-22T18:17:21.908Z,97551.48
2018-08-22T18:19:50.769Z,97553.63
2018-08-22T18:22:19.611Z,97551.09
2018-08-22T18:24:53.591Z,97553.32
2018-08-22T18:27:22.581Z,97556.91
2018-08-22T18:29:51.517Z,97564.53
2018-08-22T18:32:20.854Z,97566.30
2018-08-22T18:34:59.464Z,97571.77
2018-08-22T18:37:29.498Z,97569.66
2018-08-22T18:40:26.409Z,97579.78
2018-08-22T18:43:01.569Z,97585.48
2018-08-22T18:45:30.766Z,97590.65
2018-08-22T18:48:01.493Z,97589.45
2018-08-22T18:50:30.473Z,97592.16
2018-08-22T18:53:00.694Z,97594.93
2018-08-22T18:55:31.012Z,97595.97
2018-08-22T18:58:01.493Z,97598.44
2018-08-22T19:00:30.685Z,97598.50
2018-08-22T19:03:00.094Z,97597.05
2018-08-22T19:05:30.109Z,97605.18
2018-08-22T19:08:04.740Z,97597.86
2018-08-22T19:10:34.887Z,97604.06
2018-08-22T19:13:20.223Z,97608.26
2018-08-22T19:15:52.539Z,97601.02
2018-08-22T19:18:23.208Z,97596.25
2018-08-22T19:20:54.016Z,97596.25
2018-08-22T19:23:24.166Z,97594.69
2018-08-22T19:25:53.956Z,97593.31
2018-08-22T19:28:22.784Z,97593.39
2018-08-22T19:30:51.824Z,97589.38
2018-08-22T19:33:22.028Z,97591.66
2018-08-22T19:35:50.964Z,97588.55
2018-08-22T19:38:25.248Z,97585.31
2018-08-22T19:40:54.366Z,97592.47
2018-08-22T19:43:23.371Z,97592.48
2018-08-22T19:45:52.557Z,97590.73
2018-08-22T19:48:28.212Z,97585.76
2018-08-22T19:50:57.513Z,97586.08
2018-08-22T19:53:26.472Z,97593.87
2018-08-22T19:55:55.355Z,97596.50
2018-08-22T19:58:28.819Z,97593.39
2018-08-22T20:00:59.229Z,97596.11
2018-08-22T20:03:32.517Z,97595.14
2018-08-22T20:06:01.852Z,97598.32
2018-08-22T20:11:08.994Z,97601.69
2018-08-22T20:13:48.365Z,97600.02
2018-08-22T20:16:18.238Z,97597.16
2018-08-22T20:18:57.368Z,97601.58
2018-08-22T20:21:36.492Z,97601.25
2018-08-22T20:24:06.988Z,97596.52
2018-08-22T20:26:36.361Z,97592.53
2018-08-22T20:29:05.872Z,97594.92
2018-08-22T20:31:36.485Z,97598.97
2018-08-22T20:34:15.583Z,97595.47
2018-08-22T20:36:46.629Z,97600.15
2018-08-22T20:39:16.479Z,97599.03
2018-08-22T20:41:45.726Z,97611.30
2018-08-22T20:44:17.324Z,97607.25
2018-08-22T20:46:48.387Z,97605.13
2018-08-22T20:49:18.675Z,97605.89
2018-08-22T20:51:47.612Z,97594.98
2018-08-22T20:57:00.247Z,97610.83
2018-08-22T20:59:29.306Z,97613.56
2018-08-22T21:02:01.901Z,97609.52
2018-08-22T21:04:30.780Z,97613.30
2018-08-22T21:06:59.541Z,97613.59
2018-08-22T21:09:28.486Z,97619.27
2018-08-22T21:11:58.889Z,97615.23
2018-08-22T21:14:29.309Z,97617.86
2018-08-22T21:16:58.125Z,97617.91
2018-08-22T21:19:27.223Z,97623.78
2018-08-22T21:21:56.254Z,97622.80
2018-08-22T21:24:25.090Z,97613.38
2018-08-22T21:26:53.952Z,97617.67
2018-08-22T21:29:23.046Z,97617.41
2018-08-22T21:31:52.836Z,97624.90
2018-08-22T21:34:23.493Z,97614.44
2018-08-22T21:36:52.465Z,97619.81
2018-08-22T21:42:02.355Z,97617.17
2018-08-22T21:44:31.255Z,97618.27
2018-08-22T21:47:05.579Z,97618.77
2018-08-22T21:49:34.461Z,97611.28
2018-08-22T21:52:03.397Z,97610.73
2018-08-22T21:54:32.342Z,97614.22
2018-08-22T21:57:01.901Z,97612.88
2018-08-22T21:59:31.346Z,97606.16
2018-08-22T22:02:05.627Z,97611.01
2018-08-22T22:04:35.632Z,97609.13
2018-08-22T22:07:07.219Z,97610.19
2018-08-22T22:09:37.031Z,97615.58
2018-08-22T22:12:10.188Z,97613.97
2018-08-22T22:14:41.286Z,97611.55
2018-08-22T22:17:10.302Z,97608.58
2018-08-22T22:19:39.962Z,97608.04
2018-08-22T22:22:09.059Z,97607.52
2018-08-22T22:24:45.471Z,97616.65
2018-08-22T22:27:14.513Z,97612.88
2018-08-22T22:29:44.112Z,97610.45
2018-08-22T22:32:13.104Z,97611.81
2018-08-22T22:34:43.752Z,97601.05
2018-08-22T22:37:12.735Z,97601.86
2018-08-22T22:39:45.139Z,97599.95
2018-08-22T22:42:19.136Z,97602.66
2018-08-22T22:44:52.837Z,97600.78
2018-08-22T22:47:28.825Z,97596.20
2018-08-22T22:49:58.420Z,97600.47
2018-08-22T22:52:28.369Z,97592.66
2018-08-22T22:54:59.420Z,97593.78
2018-08-22T22:57:29.554Z,97597.02
2018-08-22T22:59:59.581Z,97588.42
2018-08-22T23:02:29.885Z,97584.66
2018-08-22T23:04:59.311Z,97586.22
2018-08-22T23:07:29.609Z,97590.53
2018-08-22T23:09:59.644Z,97592.13
2018-08-22T23:12:45.898Z,97593.70
2018-08-22T23:15:20.915Z,97589.91
2018-08-22T23:17:51.309Z,97587.22
2018-08-22T23:20:33.357Z,97583.50
2018-08-22T23:23:02.264Z,97580.81
2018-08-22T23:25:31.602Z,97585.64
2018-08-22T23:28:00.394Z,97578.67
2018-08-22T23:30:34.933Z,97584.02
2018-08-22T23:33:03.824Z,97577.55
2018-08-22T23:35:33.851Z,97575.67
2018-08-22T23:40:39.697Z,97570.62
2018-08-22T23:43:08.862Z,97571.39
2018-08-22T23:45:37.832Z,97568.17
2018-08-22T23:48:07.210Z,97566.83
2018-08-22T23:50:48.278Z,97561.17
2018-08-22T23:53:17.249Z,97563.87
2018-08-22T23:55:46.958Z,97567.89
2018-08-22T23:58:15.825Z,97567.92
